sensor_id;sensor_type;location;lat;lon;timestamp;P1;durP1;ratioP1;P2;durP2;ratioP2
18100;SDS011;9177;49.156;8.142;2023-07-09T00:01:49;5.13;;;3.45;;
18100;SDS011;9177;49.156;8.142;2023-07-09T00:04:16;3.35;;;3.03;;
18100;SDS011;9177;49.156;8.142;2023-07-09T00:06:46;4.97;;;3.70;;
18100;SDS011;9177;49.156;8.142;2023-07-09T00:09:13;3.78;;;3.35;;
18100;SDS011;9177;49.156;8.142;2023-07-09T00:11:41;4.05;;;3.40;;
18100;SDS011;9177;49.156;8.142;2023-07-09T00:14:09;4.57;;;3.33;;
18100;SDS011;9177;49.156;8.142;2023-07-09T00:16:37;3.63;;;3.33;;
18100;SDS011;9177;49.156;8.142;2023-07-09T00:19:05;3.13;;;2.83;;
18100;SDS011;9177;49.156;8.142;2023-07-09T00:21:39;3.67;;;3.25;;
18100;SDS011;9177;49.156;8.142;2023-07-09T00:24:11;4.30;;;3.50;;
18100;SDS011;9177;49.156;8.142;2023-07-09T00:26:39;4.75;;;3.25;;
18100;SDS011;9177;49.156;8.142;2023-07-09T00:29:07;4.25;;;3.28;;
18100;SDS011;9177;49.156;8.142;2023-07-09T00:31:35;4.50;;;3.30;;
18100;SDS011;9177;49.156;8.142;2023-07-09T00:34:06;4.47;;;3.58;;
18100;SDS011;9177;49.156;8.142;2023-07-09T00:36:33;4.50;;;3.38;;
18100;SDS011;9177;49.156;8.142;2023-07-09T00:39:00;3.78;;;3.40;;
18100;SDS011;9177;49.156;8.142;2023-07-09T00:41:31;4.78;;;3.20;;
18100;SDS011;9177;49.156;8.142;2023-07-09T00:44:13;5.53;;;3.92;;
18100;SDS011;9177;49.156;8.142;2023-07-09T00:49:48;4.03;;;2.97;;
18100;SDS011;9177;49.156;8.142;2023-07-09T00:52:21;3.40;;;3.10;;
18100;SDS011;9177;49.156;8.142;2023-07-09T00:54:53;3.28;;;2.97;;
18100;SDS011;9177;49.156;8.142;2023-07-09T00:57:22;3.70;;;3.30;;
18100;SDS011;9177;49.156;8.142;2023-07-09T00:59:55;3.47;;;3.03;;
18100;SDS011;9177;49.156;8.142;2023-07-09T01:02:26;4.50;;;3.30;;
18100;SDS011;9177;49.156;8.142;2023-07-09T01:04:55;3.22;;;2.85;;
18100;SDS011;9177;49.156;8.142;2023-07-09T01:07:26;3.42;;;3.13;;
18100;SDS011;9177;49.156;8.142;2023-07-09T01:09:53;4.25;;;3.28;;
18100;SDS011;9177;49.156;8.142;2023-07-09T01:12:20;3.70;;;3.38;;
18100;SDS011;9177;49.156;8.142;2023-07-09T01:15:05;3.13;;;2.90;;
18100;SDS011;9177;49.156;8.142;2023-07-09T01:17:33;3.38;;;3.08;;
18100;SDS011;9177;49.156;8.142;2023-07-09T01:20:02;3.10;;;2.80;;
18100;SDS011;9177;49.156;8.142;2023-07-09T01:22:31;3.78;;;3.05;;
18100;SDS011;9177;49.156;8.142;2023-07-09T01:24:58;4.00;;;3.10;;
18100;SDS011;9177;49.156;8.142;2023-07-09T01:27:28;3.38;;;3.08;;
18100;SDS011;9177;49.156;8.142;2023-07-09T01:29:58;3.20;;;2.80;;
18100;SDS011;9177;49.156;8.142;2023-07-09T01:32:26;3.58;;;3.28;;
18100;SDS011;9177;49.156;8.142;2023-07-09T01:34:54;3.92;;;3.40;;
18100;SDS011;9177;49.156;8.142;2023-07-09T01:37:31;3.10;;;2.90;;
18100;SDS011;9177;49.156;8.142;2023-07-09T01:39:59;4.78;;;3.28;;
18100;SDS011;9177;49.156;8.142;2023-07-09T01:42:27;3.55;;;2.90;;
18100;SDS011;9177;49.156;8.142;2023-07-09T01:44:54;4.05;;;2.92;;
18100;SDS011;9177;49.156;8.142;2023-07-09T01:47:21;3.13;;;2.50;;
18100;SDS011;9177;49.156;8.142;2023-07-09T01:49:49;4.68;;;3.20;;
18100;SDS011;9177;49.156;8.142;2023-07-09T01:52:16;3.22;;;2.92;;
18100;SDS011;9177;49.156;8.142;2023-07-09T01:54:49;3.20;;;2.90;;
18100;SDS011;9177;49.156;8.142;2023-07-09T01:57:17;3.05;;;2.78;;
18100;SDS011;9177;49.156;8.142;2023-07-09T01:59:48;3.33;;;2.90;;
18100;SDS011;9177;49.156;8.142;2023-07-09T02:02:17;3.22;;;2.92;;
18100;SDS011;9177;49.156;8.142;2023-07-09T02:04:48;3.63;;;3.10;;
18100;SDS011;9177;49.156;8.142;2023-07-09T02:07:19;3.42;;;2.63;;
18100;SDS011;9177;49.156;8.142;2023-07-09T02:09:51;3.08;;;2.78;;
18100;SDS011;9177;49.156;8.142;2023-07-09T02:12:18;3.42;;;3.13;;
18100;SDS011;9177;49.156;8.142;2023-07-09T02:14:45;3.00;;;2.78;;
18100;SDS011;9177;49.156;8.142;2023-07-09T02:17:13;2.85;;;2.65;;
18100;SDS011;9177;49.156;8.142;2023-07-09T02:19:41;3.00;;;2.70;;
18100;SDS011;9177;49.156;8.142;2023-07-09T02:22:09;3.13;;;2.83;;
18100;SDS011;9177;49.156;8.142;2023-07-09T02:24:36;3.45;;;3.15;;
18100;SDS011;9177;49.156;8.142;2023-07-09T02:27:06;3.25;;;2.95;;
18100;SDS011;9177;49.156;8.142;2023-07-09T02:29:35;3.53;;;2.97;;
18100;SDS011;9177;49.156;8.142;2023-07-09T02:32:03;3.20;;;2.80;;
18100;SDS011;9177;49.156;8.142;2023-07-09T02:34:30;3.83;;;2.65;;
18100;SDS011;9177;49.156;8.142;2023-07-09T02:36:58;2.97;;;2.63;;
18100;SDS011;9177;49.156;8.142;2023-07-09T02:39:25;3.05;;;2.85;;
18100;SDS011;9177;49.156;8.142;2023-07-09T02:41:52;3.45;;;3.15;;
18100;SDS011;9177;49.156;8.142;2023-07-09T02:44:21;3.70;;;2.90;;
18100;SDS011;9177;49.156;8.142;2023-07-09T02:46:48;3.33;;;2.90;;
18100;SDS011;9177;49.156;8.142;2023-07-09T02:49:15;3.28;;;3.00;;
18100;SDS011;9177;49.156;8.142;2023-07-09T02:51:42;2.83;;;2.63;;
18100;SDS011;9177;49.156;8.142;2023-07-09T02:54:09;4.25;;;2.92;;
18100;SDS011;9177;49.156;8.142;2023-07-09T02:56:36;2.88;;;2.67;;
18100;SDS011;9177;49.156;8.142;2023-07-09T02:59:03;3.42;;;3.13;;
18100;SDS011;9177;49.156;8.142;2023-07-09T03:01:32;4.07;;;2.78;;
18100;SDS011;9177;49.156;8.142;2023-07-09T03:04:02;2.80;;;2.60;;
18100;SDS011;9177;49.156;8.142;2023-07-09T03:06:34;3.33;;;3.03;;
18100;SDS011;9177;49.156;8.142;2023-07-09T03:09:03;2.90;;;2.58;;
18100;SDS011;9177;49.156;8.142;2023-07-09T03:11:31;3.00;;;2.72;;
18100;SDS011;9177;49.156;8.142;2023-07-09T03:14:00;2.75;;;2.35;;
18100;SDS011;9177;49.156;8.142;2023-07-09T03:16:27;3.28;;;2.70;;
18100;SDS011;9177;49.156;8.142;2023-07-09T03:18:57;4.22;;;3.00;;
18100;SDS011;9177;49.156;8.142;2023-07-09T03:21:24;3.53;;;2.75;;
18100;SDS011;9177;49.156;8.142;2023-07-09T03:23:52;4.15;;;2.95;;
18100;SDS011;9177;49.156;8.142;2023-07-09T03:26:20;3.20;;;2.47;;
18100;SDS011;9177;49.156;8.142;2023-07-09T03:28:47;2.78;;;2.58;;
18100;SDS011;9177;49.156;8.142;2023-07-09T03:31:14;2.80;;;2.50;;
18100;SDS011;9177;49.156;8.142;2023-07-09T03:33:41;3.13;;;2.80;;
18100;SDS011;9177;49.156;8.142;2023-07-09T03:36:09;3.45;;;2.80;;
18100;SDS011;9177;49.156;8.142;2023-07-09T03:38:36;3.08;;;2.78;;
18100;SDS011;9177;49.156;8.142;2023-07-09T03:41:03;3.60;;;2.70;;
18100;SDS011;9177;49.156;8.142;2023-07-09T03:43:31;2.88;;;2.67;;
18100;SDS011;9177;49.156;8.142;2023-07-09T03:45:58;2.92;;;2.72;;
18100;SDS011;9177;49.156;8.142;2023-07-09T03:48:25;3.40;;;3.10;;
18100;SDS011;9177;49.156;8.142;2023-07-09T03:50:52;2.88;;;2.67;;
18100;SDS011;9177;49.156;8.142;2023-07-09T03:53:20;3.17;;;2.88;;
18100;SDS011;9177;49.156;8.142;2023-07-09T03:55:51;3.08;;;2.78;;
18100;SDS011;9177;49.156;8.142;2023-07-09T03:58:19;2.83;;;2.63;;
18100;SDS011;9177;49.156;8.142;2023-07-09T04:01:02;2.92;;;2.72;;
18100;SDS011;9177;49.156;8.142;2023-07-09T04:03:29;3.38;;;2.90;;
18100;SDS011;9177;49.156;8.142;2023-07-09T04:05:56;2.92;;;2.70;;
18100;SDS011;9177;49.156;8.142;2023-07-09T04:08:25;2.55;;;2.35;;
18100;SDS011;9177;49.156;8.142;2023-07-09T04:10:52;2.92;;;2.70;;
18100;SDS011;9177;49.156;8.142;2023-07-09T04:13:21;2.95;;;2.75;;
18100;SDS011;9177;49.156;8.142;2023-07-09T04:15:48;3.10;;;2.80;;
18100;SDS011;9177;49.156;8.142;2023-07-09T04:18:15;3.42;;;2.83;;
18100;SDS011;9177;49.156;8.142;2023-07-09T04:20:53;2.80;;;2.60;;
18100;SDS011;9177;49.156;8.142;2023-07-09T04:23:22;2.90;;;2.70;;
18100;SDS011;9177;49.156;8.142;2023-07-09T04:25:50;3.00;;;2.80;;
18100;SDS011;9177;49.156;8.142;2023-07-09T04:28:17;2.90;;;2.70;;
18100;SDS011;9177;49.156;8.142;2023-07-09T04:30:47;3.30;;;3.00;;
18100;SDS011;9177;49.156;8.142;2023-07-09T04:33:15;3.17;;;2.88;;
18100;SDS011;9177;49.156;8.142;2023-07-09T04:35:43;3.05;;;2.78;;
18100;SDS011;9177;49.156;8.142;2023-07-09T04:38:11;3.08;;;2.80;;
18100;SDS011;9177;49.156;8.142;2023-07-09T04:40:38;2.92;;;2.63;;
18100;SDS011;9177;49.156;8.142;2023-07-09T04:43:06;3.05;;;2.75;;
18100;SDS011;9177;49.156;8.142;2023-07-09T04:45:33;2.85;;;2.65;;
18100;SDS011;9177;49.156;8.142;2023-07-09T04:48:00;2.63;;;2.42;;
18100;SDS011;9177;49.156;8.142;2023-07-09T04:50:27;3.28;;;3.03;;
18100;SDS011;9177;49.156;8.142;2023-07-09T04:52:54;2.85;;;2.65;;
18100;SDS011;9177;49.156;8.142;2023-07-09T04:55:24;2.75;;;2.55;;
18100;SDS011;9177;49.156;8.142;2023-07-09T04:57:51;2.97;;;2.67;;
18100;SDS011;9177;49.156;8.142;2023-07-09T05:00:20;2.78;;;2.58;;
18100;SDS011;9177;49.156;8.142;2023-07-09T05:02:47;3.00;;;2.80;;
18100;SDS011;9177;49.156;8.142;2023-07-09T05:05:14;3.05;;;2.75;;
18100;SDS011;9177;49.156;8.142;2023-07-09T05:07:41;3.20;;;2.90;;
18100;SDS011;9177;49.156;8.142;2023-07-09T05:10:08;2.58;;;2.38;;
18100;SDS011;9177;49.156;8.142;2023-07-09T05:12:35;3.00;;;2.75;;
18100;SDS011;9177;49.156;8.142;2023-07-09T05:15:13;3.05;;;2.83;;
18100;SDS011;9177;49.156;8.142;2023-07-09T05:17:41;3.30;;;3.00;;
18100;SDS011;9177;49.156;8.142;2023-07-09T05:20:08;3.42;;;2.80;;
18100;SDS011;9177;49.156;8.142;2023-07-09T05:22:35;3.20;;;2.80;;
18100;SDS011;9177;49.156;8.142;2023-07-09T05:25:02;3.20;;;2.78;;
18100;SDS011;9177;49.156;8.142;2023-07-09T05:27:30;3.22;;;2.92;;
18100;SDS011;9177;49.156;8.142;2023-07-09T05:29:57;2.75;;;2.55;;
18100;SDS011;9177;49.156;8.142;2023-07-09T05:32:25;3.08;;;2.58;;
18100;SDS011;9177;49.156;8.142;2023-07-09T05:34:56;3.17;;;2.78;;
18100;SDS011;9177;49.156;8.142;2023-07-09T05:37:22;2.90;;;2.60;;
18100;SDS011;9177;49.156;8.142;2023-07-09T05:39:49;2.88;;;2.67;;
18100;SDS011;9177;49.156;8.142;2023-07-09T05:42:18;3.03;;;2.72;;
18100;SDS011;9177;49.156;8.142;2023-07-09T05:44:54;3.15;;;2.78;;
18100;SDS011;9177;49.156;8.142;2023-07-09T05:47:21;2.85;;;2.55;;
18100;SDS011;9177;49.156;8.142;2023-07-09T05:49:49;3.15;;;2.92;;
18100;SDS011;9177;49.156;8.142;2023-07-09T05:52:17;2.85;;;2.53;;
18100;SDS011;9177;49.156;8.142;2023-07-09T05:54:45;2.50;;;2.30;;
18100;SDS011;9177;49.156;8.142;2023-07-09T05:57:14;3.05;;;2.67;;
18100;SDS011;9177;49.156;8.142;2023-07-09T05:59:42;3.10;;;2.80;;
18100;SDS011;9177;49.156;8.142;2023-07-09T06:02:12;2.83;;;2.63;;
18100;SDS011;9177;49.156;8.142;2023-07-09T06:04:40;2.90;;;2.50;;
18100;SDS011;9177;49.156;8.142;2023-07-09T06:07:07;3.00;;;2.47;;
18100;SDS011;9177;49.156;8.142;2023-07-09T06:09:35;2.85;;;2.65;;
18100;SDS011;9177;49.156;8.142;2023-07-09T06:12:03;2.80;;;2.55;;
18100;SDS011;9177;49.156;8.142;2023-07-09T06:14:32;2.95;;;2.65;;
18100;SDS011;9177;49.156;8.142;2023-07-09T06:16:59;3.38;;;3.08;;
18100;SDS011;9177;49.156;8.142;2023-07-09T06:19:26;2.75;;;2.50;;
18100;SDS011;9177;49.156;8.142;2023-07-09T06:21:53;2.40;;;2.22;;
18100;SDS011;9177;49.156;8.142;2023-07-09T06:24:21;2.60;;;2.40;;
18100;SDS011;9177;49.156;8.142;2023-07-09T06:26:49;2.90;;;2.70;;
18100;SDS011;9177;49.156;8.142;2023-07-09T06:29:16;2.55;;;2.35;;
18100;SDS011;9177;49.156;8.142;2023-07-09T06:31:43;4.20;;;2.80;;
18100;SDS011;9177;49.156;8.142;2023-07-09T06:34:10;2.90;;;2.60;;
18100;SDS011;9177;49.156;8.142;2023-07-09T06:36:38;2.80;;;2.58;;
18100;SDS011;9177;49.156;8.142;2023-07-09T06:39:05;2.83;;;2.63;;
18100;SDS011;9177;49.156;8.142;2023-07-09T06:41:32;2.85;;;2.60;;
18100;SDS011;9177;49.156;8.142;2023-07-09T06:44:05;2.80;;;2.60;;
18100;SDS011;9177;49.156;8.142;2023-07-09T06:46:33;3.20;;;2.72;;
18100;SDS011;9177;49.156;8.142;2023-07-09T06:49:00;3.28;;;2.97;;
18100;SDS011;9177;49.156;8.142;2023-07-09T06:51:27;2.58;;;2.38;;
18100;SDS011;9177;49.156;8.142;2023-07-09T06:53:54;3.13;;;2.85;;
18100;SDS011;9177;49.156;8.142;2023-07-09T06:56:21;3.17;;;2.88;;
18100;SDS011;9177;49.156;8.142;2023-07-09T06:58:48;3.10;;;2.72;;
18100;SDS011;9177;49.156;8.142;2023-07-09T07:01:16;3.17;;;2.88;;
18100;SDS011;9177;49.156;8.142;2023-07-09T07:03:43;3.15;;;2.85;;
18100;SDS011;9177;49.156;8.142;2023-07-09T07:06:10;3.05;;;2.83;;
18100;SDS011;9177;49.156;8.142;2023-07-09T07:08:37;2.78;;;2.53;;
18100;SDS011;9177;49.156;8.142;2023-07-09T07:11:04;2.85;;;2.58;;
18100;SDS011;9177;49.156;8.142;2023-07-09T07:13:32;3.53;;;2.58;;
18100;SDS011;9177;49.156;8.142;2023-07-09T07:16:02;3.28;;;2.70;;
18100;SDS011;9177;49.156;8.142;2023-07-09T07:18:31;2.90;;;2.70;;
18100;SDS011;9177;49.156;8.142;2023-07-09T07:20:58;3.10;;;2.80;;
18100;SDS011;9177;49.156;8.142;2023-07-09T07:23:29;3.63;;;2.90;;
18100;SDS011;9177;49.156;8.142;2023-07-09T07:25:56;3.03;;;2.83;;
18100;SDS011;9177;49.156;8.142;2023-07-09T07:28:23;3.28;;;2.97;;
18100;SDS011;9177;49.156;8.142;2023-07-09T07:30:57;2.92;;;2.70;;
18100;SDS011;9177;49.156;8.142;2023-07-09T07:33:25;2.60;;;2.40;;
18100;SDS011;9177;49.156;8.142;2023-07-09T07:35:53;2.65;;;2.45;;
18100;SDS011;9177;49.156;8.142;2023-07-09T07:38:20;2.95;;;2.75;;
18100;SDS011;9177;49.156;8.142;2023-07-09T07:40:47;3.15;;;2.85;;
18100;SDS011;9177;49.156;8.142;2023-07-09T07:43:15;3.25;;;2.97;;
18100;SDS011;9177;49.156;8.142;2023-07-09T07:45:42;3.30;;;2.92;;
18100;SDS011;9177;49.156;8.142;2023-07-09T07:48:10;2.60;;;2.40;;
18100;SDS011;9177;49.156;8.142;2023-07-09T07:50:37;3.22;;;2.90;;
18100;SDS011;9177;49.156;8.142;2023-07-09T07:53:05;2.90;;;2.70;;
18100;SDS011;9177;49.156;8.142;2023-07-09T07:55:34;2.80;;;2.60;;
18100;SDS011;9177;49.156;8.142;2023-07-09T07:58:01;2.70;;;2.50;;
18100;SDS011;9177;49.156;8.142;2023-07-09T08:00:29;2.72;;;2.53;;
18100;SDS011;9177;49.156;8.142;2023-07-09T08:02:59;2.90;;;2.58;;
18100;SDS011;9177;49.156;8.142;2023-07-09T08:05:26;2.60;;;2.40;;
18100;SDS011;9177;49.156;8.142;2023-07-09T08:07:53;3.30;;;3.00;;
18100;SDS011;9177;49.156;8.142;2023-07-09T08:10:21;2.75;;;2.55;;
18100;SDS011;9177;49.156;8.142;2023-07-09T08:12:48;2.75;;;2.55;;
18100;SDS011;9177;49.156;8.142;2023-07-09T08:15:15;2.70;;;2.50;;
18100;SDS011;9177;49.156;8.142;2023-07-09T08:17:44;2.67;;;2.38;;
18100;SDS011;9177;49.156;8.142;2023-07-09T08:20:14;2.45;;;2.25;;
18100;SDS011;9177;49.156;8.142;2023-07-09T08:22:42;4.00;;;2.90;;
18100;SDS011;9177;49.156;8.142;2023-07-09T08:25:09;3.00;;;2.70;;
18100;SDS011;9177;49.156;8.142;2023-07-09T08:27:38;2.88;;;2.67;;
18100;SDS011;9177;49.156;8.142;2023-07-09T08:30:05;2.70;;;2.50;;
18100;SDS011;9177;49.156;8.142;2023-07-09T08:32:33;2.65;;;2.45;;
18100;SDS011;9177;49.156;8.142;2023-07-09T08:35:00;2.92;;;2.72;;
18100;SDS011;9177;49.156;8.142;2023-07-09T08:37:27;3.03;;;2.80;;
18100;SDS011;9177;49.156;8.142;2023-07-09T08:39:54;2.70;;;2.50;;
18100;SDS011;9177;49.156;8.142;2023-07-09T08:42:23;3.70;;;2.63;;
18100;SDS011;9177;49.156;8.142;2023-07-09T08:45:03;2.70;;;2.40;;
18100;SDS011;9177;49.156;8.142;2023-07-09T08:47:42;4.05;;;2.58;;
18100;SDS011;9177;49.156;8.142;2023-07-09T08:50:19;2.85;;;2.65;;
18100;SDS011;9177;49.156;8.142;2023-07-09T08:52:49;2.80;;;2.55;;
18100;SDS011;9177;49.156;8.142;2023-07-09T08:55:21;2.65;;;2.42;;
18100;SDS011;9177;49.156;8.142;2023-07-09T08:57:52;4.15;;;2.50;;
18100;SDS011;9177;49.156;8.142;2023-07-09T09:00:24;2.65;;;2.45;;
18100;SDS011;9177;49.156;8.142;2023-07-09T09:02:56;3.65;;;2.70;;
18100;SDS011;9177;49.156;8.142;2023-07-09T09:05:26;2.85;;;2.55;;
18100;SDS011;9177;49.156;8.142;2023-07-09T09:07:55;3.60;;;2.90;;
18100;SDS011;9177;49.156;8.142;2023-07-09T09:10:26;3.38;;;2.80;;
18100;SDS011;9177;49.156;8.142;2023-07-09T09:13:10;3.13;;;2.42;;
18100;SDS011;9177;49.156;8.142;2023-07-09T09:15:40;2.95;;;2.65;;
18100;SDS011;9177;49.156;8.142;2023-07-09T09:18:16;3.28;;;2.97;;
18100;SDS011;9177;49.156;8.142;2023-07-09T09:20:51;3.13;;;2.83;;
18100;SDS011;9177;49.156;8.142;2023-07-09T09:23:36;2.90;;;2.55;;
18100;SDS011;9177;49.156;8.142;2023-07-09T09:26:09;3.67;;;2.97;;
18100;SDS011;9177;49.156;8.142;2023-07-09T09:28:43;3.13;;;2.17;;
18100;SDS011;9177;49.156;8.142;2023-07-09T09:31:11;2.95;;;2.50;;
18100;SDS011;9177;49.156;8.142;2023-07-09T09:33:40;3.53;;;2.45;;
18100;SDS011;9177;49.156;8.142;2023-07-09T09:36:11;4.45;;;2.72;;
18100;SDS011;9177;49.156;8.142;2023-07-09T09:38:42;3.03;;;2.50;;
18100;SDS011;9177;49.156;8.142;2023-07-09T09:41:12;4.28;;;2.40;;
18100;SDS011;9177;49.156;8.142;2023-07-09T09:43:41;3.35;;;2.63;;
18100;SDS011;9177;49.156;8.142;2023-07-09T09:46:12;3.17;;;2.90;;
18100;SDS011;9177;49.156;8.142;2023-07-09T09:48:49;4.38;;;2.55;;
18100;SDS011;9177;49.156;8.142;2023-07-09T09:51:17;2.83;;;2.42;;
18100;SDS011;9177;49.156;8.142;2023-07-09T09:53:46;3.60;;;2.50;;
18100;SDS011;9177;49.156;8.142;2023-07-09T09:56:19;3.22;;;2.80;;
18100;SDS011;9177;49.156;8.142;2023-07-09T09:58:52;2.95;;;2.65;;
18100;SDS011;9177;49.156;8.142;2023-07-09T10:01:25;2.60;;;2.35;;
18100;SDS011;9177;49.156;8.142;2023-07-09T10:04:04;2.97;;;2.67;;
18100;SDS011;9177;49.156;8.142;2023-07-09T10:06:42;2.70;;;2.47;;
18100;SDS011;9177;49.156;8.142;2023-07-09T10:09:26;2.40;;;2.20;;
18100;SDS011;9177;49.156;8.142;2023-07-09T10:12:01;2.70;;;2.50;;
18100;SDS011;9177;49.156;8.142;2023-07-09T10:14:40;4.32;;;2.55;;
18100;SDS011;9177;49.156;8.142;2023-07-09T10:17:20;2.95;;;2.58;;
18100;SDS011;9177;49.156;8.142;2023-07-09T10:19:56;2.50;;;2.30;;
18100;SDS011;9177;49.156;8.142;2023-07-09T10:22:43;3.25;;;2.20;;
18100;SDS011;9177;49.156;8.142;2023-07-09T10:25:20;4.25;;;2.35;;
18100;SDS011;9177;49.156;8.142;2023-07-09T10:28:03;5.25;;;2.28;;
18100;SDS011;9177;49.156;8.142;2023-07-09T10:30:47;3.83;;;2.55;;
18100;SDS011;9177;49.156;8.142;2023-07-09T10:33:23;3.30;;;2.33;;
18100;SDS011;9177;49.156;8.142;2023-07-09T10:35:59;3.13;;;2.58;;
18100;SDS011;9177;49.156;8.142;2023-07-09T10:38:37;2.63;;;2.17;;
18100;SDS011;9177;49.156;8.142;2023-07-09T10:41:12;4.30;;;2.63;;
18100;SDS011;9177;49.156;8.142;2023-07-09T10:43:43;3.33;;;2.10;;
18100;SDS011;9177;49.156;8.142;2023-07-09T10:46:14;3.00;;;2.70;;
18100;SDS011;9177;49.156;8.142;2023-07-09T10:48:45;4.25;;;2.53;;
18100;SDS011;9177;49.156;8.142;2023-07-09T10:51:17;4.15;;;2.50;;
18100;SDS011;9177;49.156;8.142;2023-07-09T10:53:48;2.25;;;2.05;;
18100;SDS011;9177;49.156;8.142;2023-07-09T10:56:21;4.20;;;2.13;;
18100;SDS011;9177;49.156;8.142;2023-07-09T10:58:57;2.85;;;2.42;;
18100;SDS011;9177;49.156;8.142;2023-07-09T11:01:31;5.15;;;2.58;;
18100;SDS011;9177;49.156;8.142;2023-07-09T11:04:05;3.30;;;2.38;;
18100;SDS011;9177;49.156;8.142;2023-07-09T11:06:37;4.05;;;2.50;;
18100;SDS011;9177;49.156;8.142;2023-07-09T11:09:11;5.18;;;2.58;;
18100;SDS011;9177;49.156;8.142;2023-07-09T11:11:43;7.13;;;2.78;;
18100;SDS011;9177;49.156;8.142;2023-07-09T11:14:17;8.73;;;2.80;;
18100;SDS011;9177;49.156;8.142;2023-07-09T11:16:55;6.45;;;2.75;;
18100;SDS011;9177;49.156;8.142;2023-07-09T11:19:25;7.88;;;2.63;;
18100;SDS011;9177;49.156;8.142;2023-07-09T11:21:59;10.27;;;2.95;;
18100;SDS011;9177;49.156;8.142;2023-07-09T11:24:33;9.55;;;3.10;;
18100;SDS011;9177;49.156;8.142;2023-07-09T11:27:02;11.27;;;3.22;;
18100;SDS011;9177;49.156;8.142;2023-07-09T11:29:45;7.70;;;2.63;;
18100;SDS011;9177;49.156;8.142;2023-07-09T11:32:17;6.35;;;2.58;;
18100;SDS011;9177;49.156;8.142;2023-07-09T11:34:48;8.23;;;2.92;;
18100;SDS011;9177;49.156;8.142;2023-07-09T11:37:15;6.07;;;2.72;;
18100;SDS011;9177;49.156;8.142;2023-07-09T11:39:45;8.05;;;3.15;;
18100;SDS011;9177;49.156;8.142;2023-07-09T11:42:29;7.43;;;3.17;;
18100;SDS011;9177;49.156;8.142;2023-07-09T11:44:59;4.60;;;2.42;;
18100;SDS011;9177;49.156;8.142;2023-07-09T11:47:33;9.80;;;2.88;;
18100;SDS011;9177;49.156;8.142;2023-07-09T11:50:05;5.55;;;2.80;;
18100;SDS011;9177;49.156;8.142;2023-07-09T11:52:42;5.25;;;3.05;;
18100;SDS011;9177;49.156;8.142;2023-07-09T11:55:21;6.43;;;3.28;;
18100;SDS011;9177;49.156;8.142;2023-07-09T11:57:52;6.47;;;2.83;;
18100;SDS011;9177;49.156;8.142;2023-07-09T12:00:20;14.65;;;4.03;;
18100;SDS011;9177;49.156;8.142;2023-07-09T12:02:47;8.38;;;3.10;;
18100;SDS011;9177;49.156;8.142;2023-07-09T12:05:19;8.27;;;3.15;;
18100;SDS011;9177;49.156;8.142;2023-07-09T12:07:48;8.70;;;3.42;;
18100;SDS011;9177;49.156;8.142;2023-07-09T12:10:18;9.38;;;3.47;;
18100;SDS011;9177;49.156;8.142;2023-07-09T12:13:02;11.88;;;3.22;;
18100;SDS011;9177;49.156;8.142;2023-07-09T12:15:30;11.75;;;3.40;;
18100;SDS011;9177;49.156;8.142;2023-07-09T12:17:58;10.65;;;3.22;;
18100;SDS011;9177;49.156;8.142;2023-07-09T12:20:30;9.52;;;3.00;;
18100;SDS011;9177;49.156;8.142;2023-07-09T12:23:00;10.55;;;3.30;;
18100;SDS011;9177;49.156;8.142;2023-07-09T12:25:36;9.50;;;3.15;;
18100;SDS011;9177;49.156;8.142;2023-07-09T12:28:03;11.43;;;3.15;;
18100;SDS011;9177;49.156;8.142;2023-07-09T12:30:32;10.70;;;3.05;;
18100;SDS011;9177;49.156;8.142;2023-07-09T12:33:02;8.32;;;3.22;;
18100;SDS011;9177;49.156;8.142;2023-07-09T12:35:35;10.98;;;3.28;;
18100;SDS011;9177;49.156;8.142;2023-07-09T12:38:02;13.98;;;3.92;;
18100;SDS011;9177;49.156;8.142;2023-07-09T12:40:29;11.85;;;3.35;;
18100;SDS011;9177;49.156;8.142;2023-07-09T12:42:57;16.33;;;3.60;;
18100;SDS011;9177;49.156;8.142;2023-07-09T12:45:25;15.25;;;3.42;;
18100;SDS011;9177;49.156;8.142;2023-07-09T12:47:52;16.75;;;3.60;;
18100;SDS011;9177;49.156;8.142;2023-07-09T12:50:21;29.05;;;4.60;;
18100;SDS011;9177;49.156;8.142;2023-07-09T12:52:56;27.30;;;4.35;;
18100;SDS011;9177;49.156;8.142;2023-07-09T12:55:28;27.92;;;4.72;;
18100;SDS011;9177;49.156;8.142;2023-07-09T12:58:07;23.23;;;4.57;;
18100;SDS011;9177;49.156;8.142;2023-07-09T13:00:36;24.17;;;4.40;;
18100;SDS011;9177;49.156;8.142;2023-07-09T13:03:03;46.65;;;5.45;;
18100;SDS011;9177;49.156;8.142;2023-07-09T13:05:50;32.20;;;5.43;;
18100;SDS011;9177;49.156;8.142;2023-07-09T13:08:20;27.90;;;4.97;;
18100;SDS011;9177;49.156;8.142;2023-07-09T13:10:47;31.23;;;5.32;;
18100;SDS011;9177;49.156;8.142;2023-07-09T13:13:17;24.95;;;5.18;;
18100;SDS011;9177;49.156;8.142;2023-07-09T13:15:47;28.67;;;5.25;;
18100;SDS011;9177;49.156;8.142;2023-07-09T13:18:16;19.15;;;4.68;;
18100;SDS011;9177;49.156;8.142;2023-07-09T13:20:43;21.45;;;4.38;;
18100;SDS011;9177;49.156;8.142;2023-07-09T13:23:15;20.25;;;4.03;;
18100;SDS011;9177;49.156;8.142;2023-07-09T13:25:45;17.27;;;4.63;;
18100;SDS011;9177;49.156;8.142;2023-07-09T13:28:14;24.35;;;5.03;;
18100;SDS011;9177;49.156;8.142;2023-07-09T13:30:43;17.83;;;4.28;;
18100;SDS011;9177;49.156;8.142;2023-07-09T13:33:10;17.83;;;4.10;;
18100;SDS011;9177;49.156;8.142;2023-07-09T13:35:37;16.58;;;3.63;;
18100;SDS011;9177;49.156;8.142;2023-07-09T13:38:09;19.10;;;4.15;;
18100;SDS011;9177;49.156;8.142;2023-07-09T13:40:39;15.18;;;3.60;;
18100;SDS011;9177;49.156;8.142;2023-07-09T13:43:09;17.85;;;4.28;;
18100;SDS011;9177;49.156;8.142;2023-07-09T13:45:41;15.68;;;3.88;;
18100;SDS011;9177;49.156;8.142;2023-07-09T13:48:14;15.85;;;3.50;;
18100;SDS011;9177;49.156;8.142;2023-07-09T13:50:54;9.65;;;3.25;;
18100;SDS011;9177;49.156;8.142;2023-07-09T13:53:23;9.88;;;3.20;;
18100;SDS011;9177;49.156;8.142;2023-07-09T13:55:51;17.10;;;3.38;;
18100;SDS011;9177;49.156;8.142;2023-07-09T13:58:23;12.00;;;3.58;;
18100;SDS011;9177;49.156;8.142;2023-07-09T14:00:54;12.25;;;3.58;;
18100;SDS011;9177;49.156;8.142;2023-07-09T14:03:38;13.68;;;3.45;;
18100;SDS011;9177;49.156;8.142;2023-07-09T14:06:08;15.80;;;3.65;;
18100;SDS011;9177;49.156;8.142;2023-07-09T14:08:37;14.73;;;3.80;;
18100;SDS011;9177;49.156;8.142;2023-07-09T14:11:08;14.05;;;4.13;;
18100;SDS011;9177;49.156;8.142;2023-07-09T14:13:39;15.05;;;3.55;;
18100;SDS011;9177;49.156;8.142;2023-07-09T14:16:08;15.32;;;3.40;;
18100;SDS011;9177;49.156;8.142;2023-07-09T14:18:36;17.30;;;3.75;;
18100;SDS011;9177;49.156;8.142;2023-07-09T14:21:05;12.75;;;3.00;;
18100;SDS011;9177;49.156;8.142;2023-07-09T14:23:38;11.95;;;3.67;;
18100;SDS011;9177;49.156;8.142;2023-07-09T14:26:05;16.02;;;4.03;;
18100;SDS011;9177;49.156;8.142;2023-07-09T14:28:34;11.65;;;4.03;;
18100;SDS011;9177;49.156;8.142;2023-07-09T14:31:07;13.68;;;3.55;;
18100;SDS011;9177;49.156;8.142;2023-07-09T14:33:46;10.95;;;3.83;;
18100;SDS011;9177;49.156;8.142;2023-07-09T14:36:13;15.32;;;3.70;;
18100;SDS011;9177;49.156;8.142;2023-07-09T14:38:40;9.23;;;3.35;;
18100;SDS011;9177;49.156;8.142;2023-07-09T14:41:18;10.27;;;3.35;;
18100;SDS011;9177;49.156;8.142;2023-07-09T14:43:48;18.08;;;3.55;;
18100;SDS011;9177;49.156;8.142;2023-07-09T14:46:16;9.07;;;3.55;;
18100;SDS011;9177;49.156;8.142;2023-07-09T14:48:43;17.50;;;3.75;;
18100;SDS011;9177;49.156;8.142;2023-07-09T14:51:15;10.23;;;3.35;;
18100;SDS011;9177;49.156;8.142;2023-07-09T14:53:43;13.45;;;3.92;;
18100;SDS011;9177;49.156;8.142;2023-07-09T14:56:19;14.90;;;3.58;;
18100;SDS011;9177;49.156;8.142;2023-07-09T14:58:56;9.07;;;3.33;;
18100;SDS011;9177;49.156;8.142;2023-07-09T15:01:26;8.50;;;3.17;;
18100;SDS011;9177;49.156;8.142;2023-07-09T15:03:53;13.30;;;3.50;;
18100;SDS011;9177;49.156;8.142;2023-07-09T15:06:20;9.60;;;3.17;;
18100;SDS011;9177;49.156;8.142;2023-07-09T15:08:47;13.18;;;3.40;;
18100;SDS011;9177;49.156;8.142;2023-07-09T15:11:14;13.48;;;3.58;;
18100;SDS011;9177;49.156;8.142;2023-07-09T15:13:41;12.82;;;4.38;;
18100;SDS011;9177;49.156;8.142;2023-07-09T15:16:08;12.85;;;3.80;;
18100;SDS011;9177;49.156;8.142;2023-07-09T15:18:36;18.05;;;4.43;;